sensor_id;sensor_type;location;lat;lon;timestamp;P1;durP1;ratioP1;P2;durP2;ratioP2
69937;SDS011;57248;47.320;15.998;2024-02-21T00:01:32;0.20;;;0.00;;
69937;SDS011;57248;47.320;15.998;2024-02-21T00:03:58;0.50;;;0.00;;
69937;SDS011;57248;47.320;15.998;2024-02-21T00:06:29;0.73;;;0.07;;
69937;SDS011;57248;47.320;15.998;2024-02-21T00:09:01;1.27;;;0.10;;
69937;SDS011;57248;47.320;15.998;2024-02-21T00:11:33;0.82;;;0.00;;
69937;SDS011;57248;47.320;15.998;2024-02-21T00:14:05;2.65;;;0.10;;
69937;SDS011;57248;47.320;15.998;2024-02-21T00:16:31;1.70;;;0.20;;
69937;SDS011;57248;47.320;15.998;2024-02-21T00:19:02;0.45;;;0.03;;
69937;SDS011;57248;47.320;15.998;2024-02-21T00:21:28;1.10;;;0.10;;
69937;SDS011;57248;47.320;15.998;2024-02-21T00:23:59;0.55;;;0.10;;
69937;SDS011;57248;47.320;15.998;2024-02-21T00:26:31;1.85;;;0.30;;
69937;SDS011;57248;47.320;15.998;2024-02-21T00:29:03;0.20;;;0.00;;
69937;SDS011;57248;47.320;15.998;2024-02-21T00:31:35;1.00;;;0.20;;
69937;SDS011;57248;47.320;15.998;2024-02-21T00:34:07;0.93;;;0.00;;
69937;SDS011;57248;47.320;15.998;2024-02-21T00:36:39;3.35;;;0.28;;
69937;SDS011;57248;47.320;15.998;2024-02-21T00:39:06;0.30;;;0.00;;
69937;SDS011;57248;47.320;15.998;2024-02-21T00:41:38;2.13;;;0.35;;
69937;SDS011;57248;47.320;15.998;2024-02-21T00:44:11;1.30;;;0.10;;
69937;SDS011;57248;47.320;15.998;2024-02-21T00:46:58;5.78;;;0.20;;
69937;SDS011;57248;47.320;15.998;2024-02-21T00:49:31;1.38;;;0.17;;
69937;SDS011;57248;47.320;15.998;2024-02-21T00:52:04;2.10;;;0.40;;
69937;SDS011;57248;47.320;15.998;2024-02-21T00:54:36;1.02;;;0.25;;
69937;SDS011;57248;47.320;15.998;2024-02-21T00:57:08;0.65;;;0.15;;
69937;SDS011;57248;47.320;15.998;2024-02-21T00:59:40;0.82;;;0.30;;
69937;SDS011;57248;47.320;15.998;2024-02-21T01:02:06;0.65;;;0.10;;
69937;SDS011;57248;47.320;15.998;2024-02-21T01:04:38;1.70;;;0.00;;
69937;SDS011;57248;47.320;15.998;2024-02-21T01:07:04;8.15;;;0.40;;
69937;SDS011;57248;47.320;15.998;2024-02-21T01:09:36;2.28;;;0.10;;
69937;SDS011;57248;47.320;15.998;2024-02-21T01:12:08;1.30;;;0.27;;
69937;SDS011;57248;47.320;15.998;2024-02-21T01:14:41;1.23;;;0.10;;
69937;SDS011;57248;47.320;15.998;2024-02-21T01:17:13;1.02;;;0.10;;
69937;SDS011;57248;47.320;15.998;2024-02-21T01:19:47;1.00;;;0.13;;
69937;SDS011;57248;47.320;15.998;2024-02-21T01:22:19;0.88;;;0.30;;
69937;SDS011;57248;47.320;15.998;2024-02-21T01:24:45;1.17;;;0.37;;
69937;SDS011;57248;47.320;15.998;2024-02-21T01:27:24;0.88;;;0.20;;
69937;SDS011;57248;47.320;15.998;2024-02-21T01:29:56;0.40;;;0.00;;
69937;SDS011;57248;47.320;15.998;2024-02-21T01:32:28;1.05;;;0.10;;
69937;SDS011;57248;47.320;15.998;2024-02-21T01:35:00;0.15;;;0.00;;
69937;SDS011;57248;47.320;15.998;2024-02-21T01:37:32;0.47;;;0.00;;
69937;SDS011;57248;47.320;15.998;2024-02-21T01:40:04;0.28;;;0.00;;
69937;SDS011;57248;47.320;15.998;2024-02-21T01:42:38;0.70;;;0.10;;
69937;SDS011;57248;47.320;15.998;2024-02-21T01:45:11;8.13;;;0.20;;
69937;SDS011;57248;47.320;15.998;2024-02-21T01:47:43;2.92;;;0.17;;
69937;SDS011;57248;47.320;15.998;2024-02-21T01:50:15;2.20;;;0.25;;
69937;SDS011;57248;47.320;15.998;2024-02-21T01:52:46;2.15;;;0.00;;
69937;SDS011;57248;47.320;15.998;2024-02-21T01:55:19;2.60;;;0.20;;
69937;SDS011;57248;47.320;15.998;2024-02-21T01:57:55;2.17;;;0.20;;
69937;SDS011;57248;47.320;15.998;2024-02-21T02:00:27;0.65;;;0.00;;
69937;SDS011;57248;47.320;15.998;2024-02-21T02:02:59;1.27;;;0.10;;
69937;SDS011;57248;47.320;15.998;2024-02-21T02:05:31;1.25;;;0.20;;
69937;SDS011;57248;47.320;15.998;2024-02-21T02:08:04;0.70;;;0.00;;
69937;SDS011;57248;47.320;15.998;2024-02-21T02:10:31;2.00;;;0.47;;
69937;SDS011;57248;47.320;15.998;2024-02-21T02:13:03;1.27;;;0.22;;
69937;SDS011;57248;47.320;15.998;2024-02-21T02:15:37;1.70;;;0.10;;
69937;SDS011;57248;47.320;15.998;2024-02-21T02:18:11;3.13;;;0.13;;
69937;SDS011;57248;47.320;15.998;2024-02-21T02:20:38;0.50;;;0.00;;
69937;SDS011;57248;47.320;15.998;2024-02-21T02:25:46;0.25;;;0.03;;
69937;SDS011;57248;47.320;15.998;2024-02-21T02:28:23;0.50;;;0.10;;
69937;SDS011;57248;47.320;15.998;2024-02-21T02:30:56;9.40;;;0.20;;
69937;SDS011;57248;47.320;15.998;2024-02-21T02:33:22;0.73;;;0.10;;
69937;SDS011;57248;47.320;15.998;2024-02-21T02:35:54;8.50;;;0.27;;
69937;SDS011;57248;47.320;15.998;2024-02-21T02:38:26;0.80;;;0.20;;
69937;SDS011;57248;47.320;15.998;2024-02-21T02:40:58;1.52;;;0.25;;
69937;SDS011;57248;47.320;15.998;2024-02-21T02:43:30;3.88;;;0.30;;
69937;SDS011;57248;47.320;15.998;2024-02-21T02:46:02;0.75;;;0.10;;
69937;SDS011;57248;47.320;15.998;2024-02-21T02:48:41;1.17;;;0.00;;
69937;SDS011;57248;47.320;15.998;2024-02-21T02:51:07;0.55;;;0.00;;
69937;SDS011;57248;47.320;15.998;2024-02-21T02:53:39;0.80;;;0.25;;
69937;SDS011;57248;47.320;15.998;2024-02-21T02:56:15;2.53;;;0.00;;
69937;SDS011;57248;47.320;15.998;2024-02-21T02:58:47;1.33;;;0.30;;
69937;SDS011;57248;47.320;15.998;2024-02-21T03:01:19;0.52;;;0.10;;
69937;SDS011;57248;47.320;15.998;2024-02-21T03:03:52;1.80;;;0.30;;
69937;SDS011;57248;47.320;15.998;2024-02-21T03:06:25;1.98;;;0.20;;
69937;SDS011;57248;47.320;15.998;2024-02-21T03:08:57;0.53;;;0.03;;
69937;SDS011;57248;47.320;15.998;2024-02-21T03:11:29;0.38;;;0.00;;
69937;SDS011;57248;47.320;15.998;2024-02-21T03:14:01;0.82;;;0.00;;
69937;SDS011;57248;47.320;15.998;2024-02-21T03:16:33;1.85;;;0.20;;
69937;SDS011;57248;47.320;15.998;2024-02-21T03:18:59;0.87;;;0.00;;
69937;SDS011;57248;47.320;15.998;2024-02-21T03:21:31;0.95;;;0.10;;
69937;SDS011;57248;47.320;15.998;2024-02-21T03:24:03;1.38;;;0.10;;
69937;SDS011;57248;47.320;15.998;2024-02-21T03:26:35;3.30;;;0.40;;
69937;SDS011;57248;47.320;15.998;2024-02-21T03:29:07;1.05;;;0.13;;
69937;SDS011;57248;47.320;15.998;2024-02-21T03:31:42;1.95;;;0.60;;
69937;SDS011;57248;47.320;15.998;2024-02-21T03:34:14;1.05;;;0.20;;
69937;SDS011;57248;47.320;15.998;2024-02-21T03:36:46;0.52;;;0.10;;
69937;SDS011;57248;47.320;15.998;2024-02-21T03:39:18;2.00;;;0.10;;
69937;SDS011;57248;47.320;15.998;2024-02-21T03:41:50;1.92;;;0.30;;
69937;SDS011;57248;47.320;15.998;2024-02-21T03:44:22;0.25;;;0.00;;
69937;SDS011;57248;47.320;15.998;2024-02-21T03:47:01;2.63;;;0.20;;
69937;SDS011;57248;47.320;15.998;2024-02-21T03:49:33;0.68;;;0.10;;
69937;SDS011;57248;47.320;15.998;2024-02-21T03:52:05;1.23;;;0.10;;
69937;SDS011;57248;47.320;15.998;2024-02-21T03:54:31;1.85;;;0.30;;
69937;SDS011;57248;47.320;15.998;2024-02-21T03:57:04;6.93;;;0.50;;
69937;SDS011;57248;47.320;15.998;2024-02-21T03:59:30;0.70;;;0.10;;
69937;SDS011;57248;47.320;15.998;2024-02-21T04:02:02;1.63;;;0.40;;
69937;SDS011;57248;47.320;15.998;2024-02-21T04:04:42;2.03;;;0.40;;
69937;SDS011;57248;47.320;15.998;2024-02-21T04:07:17;1.05;;;0.17;;
69937;SDS011;57248;47.320;15.998;2024-02-21T04:09:49;1.85;;;0.13;;
69937;SDS011;57248;47.320;15.998;2024-02-21T04:12:21;0.77;;;0.20;;
69937;SDS011;57248;47.320;15.998;2024-02-21T04:15:00;2.55;;;0.20;;
69937;SDS011;57248;47.320;15.998;2024-02-21T04:17:34;1.38;;;0.43;;
69937;SDS011;57248;47.320;15.998;2024-02-21T04:20:13;1.13;;;0.30;;
69937;SDS011;57248;47.320;15.998;2024-02-21T04:22:46;0.80;;;0.10;;
69937;SDS011;57248;47.320;15.998;2024-02-21T04:25:18;1.27;;;0.20;;
69937;SDS011;57248;47.320;15.998;2024-02-21T04:28:00;0.98;;;0.10;;
69937;SDS011;57248;47.320;15.998;2024-02-21T04:30:32;1.23;;;0.20;;
69937;SDS011;57248;47.320;15.998;2024-02-21T04:32:58;1.00;;;0.20;;
69937;SDS011;57248;47.320;15.998;2024-02-21T04:35:30;1.50;;;0.20;;
69937;SDS011;57248;47.320;15.998;2024-02-21T04:37:56;4.27;;;0.37;;
69937;SDS011;57248;47.320;15.998;2024-02-21T04:40:28;2.90;;;0.10;;
69937;SDS011;57248;47.320;15.998;2024-02-21T04:43:00;0.68;;;0.10;;
69937;SDS011;57248;47.320;15.998;2024-02-21T04:45:32;0.82;;;0.32;;
69937;SDS011;57248;47.320;15.998;2024-02-21T04:48:04;2.90;;;0.30;;
69937;SDS011;57248;47.320;15.998;2024-02-21T04:50:43;1.20;;;0.00;;
69937;SDS011;57248;47.320;15.998;2024-02-21T04:53:09;1.23;;;0.40;;
69937;SDS011;57248;47.320;15.998;2024-02-21T04:55:41;3.07;;;0.30;;
69937;SDS011;57248;47.320;15.998;2024-02-21T04:58:13;1.48;;;0.10;;
69937;SDS011;57248;47.320;15.998;2024-02-21T05:00:45;1.60;;;0.20;;
69937;SDS011;57248;47.320;15.998;2024-02-21T05:03:17;0.75;;;0.20;;
69937;SDS011;57248;47.320;15.998;2024-02-21T05:05:49;1.00;;;0.20;;
69937;SDS011;57248;47.320;15.998;2024-02-21T05:08:22;0.37;;;0.10;;
69937;SDS011;57248;47.320;15.998;2024-02-21T05:10:57;12.60;;;0.45;;
69937;SDS011;57248;47.320;15.998;2024-02-21T05:13:22;0.83;;;0.10;;
69937;SDS011;57248;47.320;15.998;2024-02-21T05:15:54;2.03;;;0.07;;
69937;SDS011;57248;47.320;15.998;2024-02-21T05:18:27;1.33;;;0.20;;
69937;SDS011;57248;47.320;15.998;2024-02-21T05:21:00;1.63;;;0.03;;
69937;SDS011;57248;47.320;15.998;2024-02-21T05:23:26;0.90;;;0.28;;
69937;SDS011;57248;47.320;15.998;2024-02-21T05:25:58;0.98;;;0.10;;
69937;SDS011;57248;47.320;15.998;2024-02-21T05:28:30;2.07;;;0.40;;
69937;SDS011;57248;47.320;15.998;2024-02-21T05:31:02;1.88;;;0.17;;
69937;SDS011;57248;47.320;15.998;2024-02-21T05:33:34;0.70;;;0.30;;
69937;SDS011;57248;47.320;15.998;2024-02-21T05:36:06;2.40;;;0.28;;
69937;SDS011;57248;47.320;15.998;2024-02-21T05:38:32;2.37;;;0.10;;
69937;SDS011;57248;47.320;15.998;2024-02-21T05:41:05;1.88;;;0.20;;
69937;SDS011;57248;47.320;15.998;2024-02-21T05:43:37;2.78;;;0.30;;
69937;SDS011;57248;47.320;15.998;2024-02-21T05:46:19;2.63;;;0.43;;
69937;SDS011;57248;47.320;15.998;2024-02-21T05:48:51;1.83;;;0.77;;
69937;SDS011;57248;47.320;15.998;2024-02-21T05:51:23;1.83;;;0.75;;
69937;SDS011;57248;47.320;15.998;2024-02-21T05:53:49;1.37;;;0.37;;
69937;SDS011;57248;47.320;15.998;2024-02-21T05:56:21;1.20;;;0.30;;
69937;SDS011;57248;47.320;15.998;2024-02-21T05:58:54;3.38;;;0.40;;
69937;SDS011;57248;47.320;15.998;2024-02-21T06:01:27;1.92;;;0.10;;
69937;SDS011;57248;47.320;15.998;2024-02-21T06:03:59;3.63;;;0.52;;
69937;SDS011;57248;47.320;15.998;2024-02-21T06:06:31;1.70;;;0.43;;
69937;SDS011;57248;47.320;15.998;2024-02-21T06:08:57;0.85;;;0.10;;
69937;SDS011;57248;47.320;15.998;2024-02-21T06:11:30;1.23;;;0.13;;
69937;SDS011;57248;47.320;15.998;2024-02-21T06:13:56;1.00;;;0.22;;
69937;SDS011;57248;47.320;15.998;2024-02-21T06:16:28;1.80;;;0.10;;
69937;SDS011;57248;47.320;15.998;2024-02-21T06:19:01;2.78;;;0.40;;
69937;SDS011;57248;47.320;15.998;2024-02-21T06:21:34;0.65;;;0.10;;
69937;SDS011;57248;47.320;15.998;2024-02-21T06:24:07;4.55;;;0.35;;
69937;SDS011;57248;47.320;15.998;2024-02-21T06:26:40;0.95;;;0.10;;
69937;SDS011;57248;47.320;15.998;2024-02-21T06:29:12;1.83;;;0.30;;
69937;SDS011;57248;47.320;15.998;2024-02-21T06:31:44;1.02;;;0.10;;
69937;SDS011;57248;47.320;15.998;2024-02-21T06:34:16;2.33;;;0.25;;
69937;SDS011;57248;47.320;15.998;2024-02-21T06:36:48;3.75;;;0.30;;
69937;SDS011;57248;47.320;15.998;2024-02-21T06:39:16;1.30;;;0.40;;
69937;SDS011;57248;47.320;15.998;2024-02-21T06:41:48;2.00;;;0.30;;
69937;SDS011;57248;47.320;15.998;2024-02-21T06:44:22;5.00;;;0.70;;
69937;SDS011;57248;47.320;15.998;2024-02-21T06:46:55;2.85;;;0.45;;
69937;SDS011;57248;47.320;15.998;2024-02-21T06:49:38;2.05;;;0.68;;
69937;SDS011;57248;47.320;15.998;2024-02-21T06:52:16;2.35;;;0.30;;
69937;SDS011;57248;47.320;15.998;2024-02-21T06:54:49;2.17;;;0.40;;
69937;SDS011;57248;47.320;15.998;2024-02-21T06:57:22;1.60;;;0.40;;
69937;SDS011;57248;47.320;15.998;2024-02-21T06:59:54;2.35;;;0.50;;
69937;SDS011;57248;47.320;15.998;2024-02-21T07:02:26;5.30;;;1.33;;
69937;SDS011;57248;47.320;15.998;2024-02-21T07:04:58;1.90;;;0.40;;
69937;SDS011;57248;47.320;15.998;2024-02-21T07:07:37;2.77;;;0.43;;
69937;SDS011;57248;47.320;15.998;2024-02-21T07:10:17;0.70;;;0.10;;
69937;SDS011;57248;47.320;15.998;2024-02-21T07:12:51;2.35;;;0.52;;
69937;SDS011;57248;47.320;15.998;2024-02-21T07:15:25;4.28;;;1.10;;
69937;SDS011;57248;47.320;15.998;2024-02-21T07:17:58;7.53;;;1.95;;
69937;SDS011;57248;47.320;15.998;2024-02-21T07:20:30;4.30;;;0.97;;
69937;SDS011;57248;47.320;15.998;2024-02-21T07:23:06;11.00;;;1.60;;
69937;SDS011;57248;47.320;15.998;2024-02-21T07:25:38;3.78;;;1.42;;
69937;SDS011;57248;47.320;15.998;2024-02-21T07:28:18;2.35;;;0.70;;
69937;SDS011;57248;47.320;15.998;2024-02-21T07:30:50;7.40;;;0.90;;
69937;SDS011;57248;47.320;15.998;2024-02-21T07:33:22;2.47;;;0.40;;
69937;SDS011;57248;47.320;15.998;2024-02-21T07:35:55;3.97;;;1.10;;
69937;SDS011;57248;47.320;15.998;2024-02-21T07:38:27;4.10;;;1.13;;
69937;SDS011;57248;47.320;15.998;2024-02-21T07:40:53;3.00;;;0.60;;
69937;SDS011;57248;47.320;15.998;2024-02-21T07:43:26;3.08;;;0.75;;
69937;SDS011;57248;47.320;15.998;2024-02-21T07:45:58;2.78;;;1.08;;
69937;SDS011;57248;47.320;15.998;2024-02-21T07:48:30;3.83;;;1.00;;
69937;SDS011;57248;47.320;15.998;2024-02-21T07:51:09;3.38;;;1.10;;
69937;SDS011;57248;47.320;15.998;2024-02-21T07:53:42;3.10;;;0.90;;
69937;SDS011;57248;47.320;15.998;2024-02-21T07:56:16;1.52;;;0.28;;
69937;SDS011;57248;47.320;15.998;2024-02-21T07:58:48;2.67;;;0.85;;
69937;SDS011;57248;47.320;15.998;2024-02-21T08:01:20;4.20;;;1.00;;
69937;SDS011;57248;47.320;15.998;2024-02-21T08:03:52;3.40;;;0.68;;
69937;SDS011;57248;47.320;15.998;2024-02-21T08:06:25;3.58;;;0.38;;
69937;SDS011;57248;47.320;15.998;2024-02-21T08:08:57;1.77;;;0.20;;
69937;SDS011;57248;47.320;15.998;2024-02-21T08:11:23;2.57;;;0.20;;
69937;SDS011;57248;47.320;15.998;2024-02-21T08:13:55;1.33;;;0.30;;
69937;SDS011;57248;47.320;15.998;2024-02-21T08:16:28;1.63;;;0.20;;
69937;SDS011;57248;47.320;15.998;2024-02-21T08:19:02;2.27;;;0.50;;
69937;SDS011;57248;47.320;15.998;2024-02-21T08:21:36;3.38;;;0.50;;
69937;SDS011;57248;47.320;15.998;2024-02-21T08:24:08;2.72;;;0.57;;
69937;SDS011;57248;47.320;15.998;2024-02-21T08:26:34;1.97;;;0.50;;
69937;SDS011;57248;47.320;15.998;2024-02-21T08:29:07;3.22;;;0.45;;
69937;SDS011;57248;47.320;15.998;2024-02-21T08:31:39;2.35;;;0.35;;
69937;SDS011;57248;47.320;15.998;2024-02-21T08:34:13;1.88;;;0.30;;
69937;SDS011;57248;47.320;15.998;2024-02-21T08:36:53;1.70;;;0.30;;
69937;SDS011;57248;47.320;15.998;2024-02-21T08:39:25;2.97;;;0.27;;
69937;SDS011;57248;47.320;15.998;2024-02-21T08:41:59;1.33;;;0.30;;
69937;SDS011;57248;47.320;15.998;2024-02-21T08:44:27;3.38;;;0.47;;
69937;SDS011;57248;47.320;15.998;2024-02-21T08:47:06;2.58;;;0.50;;
69937;SDS011;57248;47.320;15.998;2024-02-21T08:49:40;1.75;;;0.40;;
69937;SDS011;57248;47.320;15.998;2024-02-21T08:52:12;1.30;;;0.30;;
69937;SDS011;57248;47.320;15.998;2024-02-21T08:54:44;2.92;;;0.70;;
69937;SDS011;57248;47.320;15.998;2024-02-21T08:57:16;1.75;;;0.57;;
69937;SDS011;57248;47.320;15.998;2024-02-21T08:59:50;2.55;;;0.50;;
69937;SDS011;57248;47.320;15.998;2024-02-21T09:02:16;2.70;;;0.53;;
69937;SDS011;57248;47.320;15.998;2024-02-21T09:04:48;1.05;;;0.40;;
69937;SDS011;57248;47.320;15.998;2024-02-21T09:07:14;1.30;;;0.40;;
69937;SDS011;57248;47.320;15.998;2024-02-21T09:09:46;2.85;;;0.50;;
69937;SDS011;57248;47.320;15.998;2024-02-21T09:12:25;3.45;;;0.50;;
69937;SDS011;57248;47.320;15.998;2024-02-21T09:14:57;2.22;;;0.55;;
69937;SDS011;57248;47.320;15.998;2024-02-21T09:17:23;1.90;;;0.50;;
69937;SDS011;57248;47.320;15.998;2024-02-21T09:19:56;1.27;;;0.50;;
69937;SDS011;57248;47.320;15.998;2024-02-21T09:22:30;0.90;;;0.20;;
69937;SDS011;57248;47.320;15.998;2024-02-21T09:25:07;1.30;;;0.17;;
69937;SDS011;57248;47.320;15.998;2024-02-21T09:27:39;0.88;;;0.13;;
69937;SDS011;57248;47.320;15.998;2024-02-21T09:30:11;1.55;;;0.15;;
69937;SDS011;57248;47.320;15.998;2024-02-21T09:32:43;1.98;;;0.25;;
69937;SDS011;57248;47.320;15.998;2024-02-21T09:35:17;1.65;;;0.15;;
69937;SDS011;57248;47.320;15.998;2024-02-21T09:37:48;1.40;;;0.30;;
69937;SDS011;57248;47.320;15.998;2024-02-21T09:40:22;0.70;;;0.10;;
69937;SDS011;57248;47.320;15.998;2024-02-21T09:43:01;4.07;;;0.57;;
69937;SDS011;57248;47.320;15.998;2024-02-21T09:45:38;2.15;;;0.20;;
69937;SDS011;57248;47.320;15.998;2024-02-21T09:51:09;0.90;;;0.20;;
69937;SDS011;57248;47.320;15.998;2024-02-21T09:53:42;1.60;;;0.22;;
69937;SDS011;57248;47.320;15.998;2024-02-21T09:56:16;1.88;;;0.57;;
69937;SDS011;57248;47.320;15.998;2024-02-21T09:58:48;1.02;;;0.55;;
69937;SDS011;57248;47.320;15.998;2024-02-21T10:01:14;2.63;;;0.60;;
69937;SDS011;57248;47.320;15.998;2024-02-21T10:03:47;2.33;;;0.40;;
69937;SDS011;57248;47.320;15.998;2024-02-21T10:06:19;1.33;;;0.40;;
69937;SDS011;57248;47.320;15.998;2024-02-21T10:08:52;4.20;;;0.80;;
69937;SDS011;57248;47.320;15.998;2024-02-21T10:11:25;2.03;;;0.80;;
69937;SDS011;57248;47.320;15.998;2024-02-21T10:14:07;1.42;;;0.98;;
69937;SDS011;57248;47.320;15.998;2024-02-21T10:16:39;1.48;;;0.80;;
69937;SDS011;57248;47.320;15.998;2024-02-21T10:19:18;1.58;;;0.50;;
69937;SDS011;57248;47.320;15.998;2024-02-21T10:22:07;1.33;;;0.40;;
69937;SDS011;57248;47.320;15.998;2024-02-21T10:24:39;0.98;;;0.22;;
69937;SDS011;57248;47.320;15.998;2024-02-21T10:27:14;2.60;;;0.40;;
69937;SDS011;57248;47.320;15.998;2024-02-21T10:29:40;1.43;;;0.30;;
69937;SDS011;57248;47.320;15.998;2024-02-21T10:32:13;0.75;;;0.15;;
69937;SDS011;57248;47.320;15.998;2024-02-21T10:34:45;1.77;;;0.17;;
69937;SDS011;57248;47.320;15.998;2024-02-21T10:37:19;1.05;;;0.20;;
69937;SDS011;57248;47.320;15.998;2024-02-21T10:39:46;2.92;;;0.30;;
69937;SDS011;57248;47.320;15.998;2024-02-21T10:42:17;1.90;;;0.30;;
69937;SDS011;57248;47.320;15.998;2024-02-21T10:44:54;0.63;;;0.10;;
69937;SDS011;57248;47.320;15.998;2024-02-21T10:47:38;1.13;;;0.10;;
69937;SDS011;57248;47.320;15.998;2024-02-21T10:50:13;1.17;;;0.50;;
69937;SDS011;57248;47.320;15.998;2024-02-21T10:53:04;2.03;;;0.40;;
69937;SDS011;57248;47.320;15.998;2024-02-21T10:58:44;1.77;;;0.55;;
69937;SDS011;57248;47.320;15.998;2024-02-21T11:01:18;1.63;;;0.55;;
69937;SDS011;57248;47.320;15.998;2024-02-21T11:03:44;2.45;;;0.80;;
69937;SDS011;57248;47.320;15.998;2024-02-21T11:06:18;1.23;;;0.57;;
69937;SDS011;57248;47.320;15.998;2024-02-21T11:11:37;1.92;;;0.80;;
69937;SDS011;57248;47.320;15.998;2024-02-21T11:16:52;2.30;;;1.00;;
69937;SDS011;57248;47.320;15.998;2024-02-21T11:19:25;4.25;;;1.15;;
69937;SDS011;57248;47.320;15.998;2024-02-21T11:21:58;4.70;;;1.60;;
69937;SDS011;57248;47.320;15.998;2024-02-21T11:24:27;3.03;;;1.30;;
69937;SDS011;57248;47.320;15.998;2024-02-21T11:27:12;2.55;;;1.00;;
69937;SDS011;57248;47.320;15.998;2024-02-21T11:29:55;1.63;;;1.00;;
69937;SDS011;57248;47.320;15.998;2024-02-21T11:32:27;1.50;;;0.80;;
69937;SDS011;57248;47.320;15.998;2024-02-21T11:35:02;2.13;;;0.93;;
69937;SDS011;57248;47.320;15.998;2024-02-21T11:37:36;1.05;;;0.65;;
69937;SDS011;57248;47.320;15.998;2024-02-21T11:40:12;2.22;;;0.70;;
69937;SDS011;57248;47.320;15.998;2024-02-21T11:42:44;2.38;;;1.20;;
69937;SDS011;57248;47.320;15.998;2024-02-21T11:45:10;1.77;;;1.10;;
69937;SDS011;57248;47.320;15.998;2024-02-21T11:47:49;2.33;;;1.00;;
69937;SDS011;57248;47.320;15.998;2024-02-21T11:50:21;1.55;;;1.08;;
69937;SDS011;57248;47.320;15.998;2024-02-21T11:52:55;2.47;;;0.90;;
69937;SDS011;57248;47.320;15.998;2024-02-21T11:55:28;1.38;;;0.88;;
69937;SDS011;57248;47.320;15.998;2024-02-21T11:58:00;2.38;;;0.30;;
69937;SDS011;57248;47.320;15.998;2024-02-21T12:00:33;1.17;;;0.20;;
69937;SDS011;57248;47.320;15.998;2024-02-21T12:02:58;1.93;;;0.40;;
69937;SDS011;57248;47.320;15.998;2024-02-21T12:05:33;1.65;;;0.30;;
69937;SDS011;57248;47.320;15.998;2024-02-21T12:08:05;0.70;;;0.13;;
69937;SDS011;57248;47.320;15.998;2024-02-21T12:10:38;1.13;;;0.20;;
69937;SDS011;57248;47.320;15.998;2024-02-21T12:13:10;1.00;;;0.10;;
69937;SDS011;57248;47.320;15.998;2024-02-21T12:15:47;0.60;;;0.10;;
69937;SDS011;57248;47.320;15.998;2024-02-21T12:18:20;0.45;;;0.10;;
69937;SDS011;57248;47.320;15.998;2024-02-21T12:20:54;0.85;;;0.10;;
69937;SDS011;57248;47.320;15.998;2024-02-21T12:23:28;1.13;;;0.10;;
69937;SDS011;57248;47.320;15.998;2024-02-21T12:26:01;3.27;;;0.20;;
69937;SDS011;57248;47.320;15.998;2024-02-21T12:28:36;1.23;;;0.20;;
69937;SDS011;57248;47.320;15.998;2024-02-21T12:31:08;1.20;;;0.20;;
69937;SDS011;57248;47.320;15.998;2024-02-21T12:33:40;1.58;;;0.13;;
69937;SDS011;57248;47.320;15.998;2024-02-21T12:36:13;1.90;;;0.45;;
69937;SDS011;57248;47.320;15.998;2024-02-21T12:38:44;1.80;;;0.30;;
69937;SDS011;57248;47.320;15.998;2024-02-21T12:41:18;1.52;;;0.22;;
69937;SDS011;57248;47.320;15.998;2024-02-21T12:43:51;2.33;;;0.20;;
69937;SDS011;57248;47.320;15.998;2024-02-21T12:46:24;2.00;;;0.30;;
69937;SDS011;57248;47.320;15.998;2024-02-21T12:48:55;2.55;;;0.30;;
69937;SDS011;57248;47.320;15.998;2024-02-21T12:51:36;0.50;;;0.10;;
69937;SDS011;57248;47.320;15.998;2024-02-21T12:54:09;2.05;;;0.13;;
69937;SDS011;57248;47.320;15.998;2024-02-21T12:56:44;0.73;;;0.10;;
69937;SDS011;57248;47.320;15.998;2024-02-21T12:59:15;1.15;;;0.10;;
69937;SDS011;57248;47.320;15.998;2024-02-21T13:01:48;1.02;;;0.10;;
69937;SDS011;57248;47.320;15.998;2024-02-21T13:04:19;0.80;;;0.13;;
69937;SDS011;57248;47.320;15.998;2024-02-21T13:06:54;0.98;;;0.15;;
69937;SDS011;57248;47.320;15.998;2024-02-21T13:09:29;1.38;;;0.15;;
69937;SDS011;57248;47.320;15.998;2024-02-21T13:11:55;0.73;;;0.10;;
69937;SDS011;57248;47.320;15.998;2024-02-21T13:14:27;1.42;;;0.13;;
69937;SDS011;57248;47.320;15.998;2024-02-21T13:16:59;0.95;;;0.17;;
69937;SDS011;57248;47.320;15.998;2024-02-21T13:19:31;3.00;;;0.30;;
69937;SDS011;57248;47.320;15.998;2024-02-21T13:22:04;2.85;;;0.20;;
69937;SDS011;57248;47.320;15.998;2024-02-21T13:24:35;1.10;;;0.20;;
69937;SDS011;57248;47.320;15.998;2024-02-21T13:27:07;1.85;;;0.50;;
69937;SDS011;57248;47.320;15.998;2024-02-21T13:29:40;1.33;;;0.17;;
69937;SDS011;57248;47.320;15.998;2024-02-21T13:32:11;0.85;;;0.10;;
69937;SDS011;57248;47.320;15.998;2024-02-21T13:34:44;1.42;;;0.20;;
69937;SDS011;57248;47.320;15.998;2024-02-21T13:37:16;1.33;;;0.20;;
69937;SDS011;57248;47.320;15.998;2024-02-21T13:39:47;2.25;;;0.28;;
69937;SDS011;57248;47.320;15.998;2024-02-21T13:42:19;3.00;;;0.28;;
69937;SDS011;57248;47.320;15.998;2024-02-21T13:44:52;1.27;;;0.20;;
69937;SDS011;57248;47.320;15.998;2024-02-21T13:47:25;1.15;;;0.10;;
69937;SDS011;57248;47.320;15.998;2024-02-21T13:49:56;1.50;;;0.15;;
69937;SDS011;57248;47.320;15.998;2024-02-21T13:52:37;2.13;;;0.20;;
69937;SDS011;57248;47.320;15.998;2024-02-21T13:55:10;0.85;;;0.17;;
69937;SDS011;57248;47.320;15.998;2024-02-21T13:57:41;0.83;;;0.10;;
69937;SDS011;57248;47.320;15.998;2024-02-21T14:00:07;0.63;;;0.10;;
69937;SDS011;57248;47.320;15.998;2024-02-21T14:02:42;0.83;;;0.20;;
69937;SDS011;57248;47.320;15.998;2024-02-21T14:05:08;0.60;;;0.10;;
69937;SDS011;57248;47.320;15.998;2024-02-21T14:07:40;2.88;;;0.50;;
69937;SDS011;57248;47.320;15.998;2024-02-21T14:10:13;3.43;;;0.80;;
69937;SDS011;57248;47.320;15.998;2024-02-21T14:12:44;2.33;;;0.13;;
69937;SDS011;57248;47.320;15.998;2024-02-21T14:15:23;3.10;;;0.77;;
69937;SDS011;57248;47.320;15.998;2024-02-21T14:17:57;2.47;;;0.25;;
69937;SDS011;57248;47.320;15.998;2024-02-21T14:20:29;1.00;;;0.10;;
69937;SDS011;57248;47.320;15.998;2024-02-21T14:23:02;2.30;;;0.30;;
69937;SDS011;57248;47.320;15.998;2024-02-21T14:25:34;1.42;;;0.10;;
69937;SDS011;57248;47.320;15.998;2024-02-21T14:28:06;3.90;;;0.10;;
69937;SDS011;57248;47.320;15.998;2024-02-21T14:30:31;1.70;;;0.17;;
69937;SDS011;57248;47.320;15.998;2024-02-21T14:33:10;1.13;;;0.10;;
69937;SDS011;57248;47.320;15.998;2024-02-21T14:35:35;0.53;;;0.10;;
69937;SDS011;57248;47.320;15.998;2024-02-21T14:38:15;0.80;;;0.10;;
69937;SDS011;57248;47.320;15.998;2024-02-21T14:40:54;2.00;;;0.10;;
69937;SDS011;57248;47.320;15.998;2024-02-21T14:43:26;0.60;;;0.10;;
69937;SDS011;57248;47.320;15.998;2024-02-21T14:46:05;2.35;;;0.15;;
69937;SDS011;57248;47.320;15.998;2024-02-21T14:48:45;1.60;;;0.30;;
69937;SDS011;57248;47.320;15.998;2024-02-21T14:51:17;2.13;;;0.10;;
69937;SDS011;57248;47.320;15.998;2024-02-21T14:53:42;2.83;;;0.33;;
69937;SDS011;57248;47.320;15.998;2024-02-21T14:56:14;2.67;;;0.60;;
69937;SDS011;57248;47.320;15.998;2024-02-21T14:58:48;5.28;;;1.35;;
69937;SDS011;57248;47.320;15.998;2024-02-21T15:01:21;2.85;;;0.60;;
69937;SDS011;57248;47.320;15.998;2024-02-21T15:03:53;2.50;;;0.65;;
69937;SDS011;57248;47.320;15.998;2024-02-21T15:06:25;1.80;;;0.30;;
69937;SDS011;57248;47.320;15.998;2024-02-21T15:08:57;4.00;;;2.05;;
69937;SDS011;57248;47.320;15.998;2024-02-21T15:11:31;3.30;;;0.82;;
69937;SDS011;57248;47.320;15.998;2024-02-21T15:14:03;1.65;;;0.20;;
69937;SDS011;57248;47.320;15.998;2024-02-21T15:16:36;2.13;;;0.40;;
69937;SDS011;57248;47.320;15.998;2024-02-21T15:19:08;3.60;;;1.10;;